sensor_id;sensor_type;location;lat;lon;timestamp;temperature;humidity
6536;DHT22;34330;52.08032700;5.40923460;2023-07-16T00:02:14;21.80;59.20
6536;DHT22;34330;52.08032700;5.40923460;2023-07-16T00:04:42;21.80;59.20
6536;DHT22;34330;52.08032700;5.40923460;2023-07-16T00:07:10;21.80;59.10
6536;DHT22;34330;52.08032700;5.40923460;2023-07-16T00:09:38;21.80;59.10
6536;DHT22;34330;52.08032700;5.40923460;2023-07-16T00:12:06;21.80;59.10
6536;DHT22;34330;52.08032700;5.40923460;2023-07-16T00:14:35;21.80;59.10
6536;DHT22;34330;52.08032700;5.40923460;2023-07-16T00:17:05;21.80;59.00
6536;DHT22;34330;52.08032700;5.40923460;2023-07-16T00:19:33;21.80;58.90
6536;DHT22;34330;52.08032700;5.40923460;2023-07-16T00:22:01;21.80;58.80
6536;DHT22;34330;52.08032700;5.40923460;2023-07-16T00:24:29;21.80;59.00
6536;DHT22;34330;52.08032700;5.40923460;2023-07-16T00:26:57;21.70;58.90
6536;DHT22;34330;52.08032700;5.40923460;2023-07-16T00:29:25;21.70;58.90
6536;DHT22;34330;52.08032700;5.40923460;2023-07-16T00:31:53;21.70;58.80
6536;DHT22;34330;52.08032700;5.40923460;2023-07-16T00:34:23;21.70;58.90
6536;DHT22;34330;52.08032700;5.40923460;2023-07-16T00:36:51;21.60;58.90
6536;DHT22;34330;52.08032700;5.40923460;2023-07-16T00:39:19;21.60;59.00
6536;DHT22;34330;52.08032700;5.40923460;2023-07-16T00:41:47;21.60;59.10
6536;DHT22;34330;52.08032700;5.40923460;2023-07-16T00:44:15;21.60;58.80
6536;DHT22;34330;52.08032700;5.40923460;2023-07-16T00:46:43;21.60;59.10
6536;DHT22;34330;52.08032700;5.40923460;2023-07-16T00:49:11;21.60;58.90
6536;DHT22;34330;52.08032700;5.40923460;2023-07-16T00:51:41;21.50;58.90
6536;DHT22;34330;52.08032700;5.40923460;2023-07-16T00:54:10;21.50;59.10
6536;DHT22;34330;52.08032700;5.40923460;2023-07-16T00:56:38;21.50;59.20
6536;DHT22;34330;52.08032700;5.40923460;2023-07-16T00:59:06;21.50;59.20
6536;DHT22;34330;52.08032700;5.40923460;2023-07-16T01:01:35;21.50;59.40
6536;DHT22;34330;52.08032700;5.40923460;2023-07-16T01:04:04;21.50;59.40
6536;DHT22;34330;52.08032700;5.40923460;2023-07-16T01:06:35;21.40;59.60
6536;DHT22;34330;52.08032700;5.40923460;2023-07-16T01:09:12;21.40;59.60
6536;DHT22;34330;52.08032700;5.40923460;2023-07-16T01:11:43;21.40;59.80
6536;DHT22;34330;52.08032700;5.40923460;2023-07-16T01:14:12;21.40;59.80
6536;DHT22;34330;52.08032700;5.40923460;2023-07-16T01:16:41;21.40;59.90
6536;DHT22;34330;52.08032700;5.40923460;2023-07-16T01:19:09;21.30;59.80
6536;DHT22;34330;52.08032700;5.40923460;2023-07-16T01:21:42;21.30;59.80
6536;DHT22;34330;52.08032700;5.40923460;2023-07-16T01:24:40;21.30;60.10
6536;DHT22;34330;52.08032700;5.40923460;2023-07-16T01:27:28;21.30;60.20
6536;DHT22;34330;52.08032700;5.40923460;2023-07-16T01:30:01;21.30;60.30
6536;DHT22;34330;52.08032700;5.40923460;2023-07-16T01:32:31;21.30;60.30
6536;DHT22;34330;52.08032700;5.40923460;2023-07-16T01:34:59;21.30;60.30
6536;DHT22;34330;52.08032700;5.40923460;2023-07-16T01:37:28;21.20;60.20
6536;DHT22;34330;52.08032700;5.40923460;2023-07-16T01:39:56;21.20;60.30
6536;DHT22;34330;52.08032700;5.40923460;2023-07-16T01:42:25;21.20;60.40
6536;DHT22;34330;52.08032700;5.40923460;2023-07-16T01:44:53;21.20;60.40
6536;DHT22;34330;52.08032700;5.40923460;2023-07-16T01:47:28;21.20;60.50
6536;DHT22;34330;52.08032700;5.40923460;2023-07-16T01:49:58;21.20;60.80
6536;DHT22;34330;52.08032700;5.40923460;2023-07-16T01:52:26;21.10;60.70
6536;DHT22;34330;52.08032700;5.40923460;2023-07-16T01:54:54;21.10;60.80
6536;DHT22;34330;52.08032700;5.40923460;2023-07-16T01:57:23;21.10;60.90
6536;DHT22;34330;52.08032700;5.40923460;2023-07-16T01:59:51;21.10;61.00
6536;DHT22;34330;52.08032700;5.40923460;2023-07-16T02:02:19;21.10;61.30
6536;DHT22;34330;52.08032700;5.40923460;2023-07-16T02:04:48;21.10;61.40
6536;DHT22;34330;52.08032700;5.40923460;2023-07-16T02:07:17;21.00;61.30
6536;DHT22;34330;52.08032700;5.40923460;2023-07-16T02:09:45;21.10;61.60
6536;DHT22;34330;52.08032700;5.40923460;2023-07-16T02:12:13;22.50;63.10
6536;DHT22;34330;52.08032700;5.40923460;2023-07-16T02:14:41;21.00;61.80
6536;DHT22;34330;52.08032700;5.40923460;2023-07-16T02:17:09;21.00;62.00
6536;DHT22;34330;52.08032700;5.40923460;2023-07-16T02:19:38;21.00;62.10
6536;DHT22;34330;52.08032700;5.40923460;2023-07-16T02:22:08;21.00;62.20
6536;DHT22;34330;52.08032700;5.40923460;2023-07-16T02:24:38;21.00;62.50
6536;DHT22;34330;52.08032700;5.40923460;2023-07-16T02:27:06;20.90;62.40
6536;DHT22;34330;52.08032700;5.40923460;2023-07-16T02:29:34;20.90;62.60
6536;DHT22;34330;52.08032700;5.40923460;2023-07-16T02:32:03;20.90;62.50
6536;DHT22;34330;52.08032700;5.40923460;2023-07-16T02:34:31;20.90;62.80
6536;DHT22;34330;52.08032700;5.40923460;2023-07-16T02:36:59;20.90;62.80
6536;DHT22;34330;52.08032700;5.40923460;2023-07-16T02:39:28;20.90;63.00
6536;DHT22;34330;52.08032700;5.40923460;2023-07-16T02:41:56;20.90;63.20
6536;DHT22;34330;52.08032700;5.40923460;2023-07-16T02:44:24;20.80;63.80
6536;DHT22;34330;52.08032700;5.40923460;2023-07-16T02:46:52;20.80;63.20
6536;DHT22;34330;52.08032700;5.40923460;2023-07-16T02:49:20;20.90;63.40
6536;DHT22;34330;52.08032700;5.40923460;2023-07-16T02:51:48;20.90;63.50
6536;DHT22;34330;52.08032700;5.40923460;2023-07-16T02:54:16;20.80;63.30
6536;DHT22;34330;52.08032700;5.40923460;2023-07-16T02:56:47;20.90;63.60
6536;DHT22;34330;52.08032700;5.40923460;2023-07-16T02:59:15;20.90;63.60
6536;DHT22;34330;52.08032700;5.40923460;2023-07-16T03:01:43;20.90;63.60
6536;DHT22;34330;52.08032700;5.40923460;2023-07-16T03:04:11;20.90;63.50
6536;DHT22;34330;52.08032700;5.40923460;2023-07-16T03:06:39;20.90;63.70
6536;DHT22;34330;52.08032700;5.40923460;2023-07-16T03:09:07;20.90;63.60
6536;DHT22;34330;52.08032700;5.40923460;2023-07-16T03:11:35;22.30;66.20
6536;DHT22;34330;52.08032700;5.40923460;2023-07-16T03:14:04;20.70;65.30
6536;DHT22;34330;52.08032700;5.40923460;2023-07-16T03:16:33;20.90;64.60
6536;DHT22;34330;52.08032700;5.40923460;2023-07-16T03:19:01;20.80;64.20
6536;DHT22;34330;52.08032700;5.40923460;2023-07-16T03:21:30;20.80;64.00
6536;DHT22;34330;52.08032700;5.40923460;2023-07-16T03:23:57;20.80;64.10
6536;DHT22;34330;52.08032700;5.40923460;2023-07-16T03:26:25;20.80;64.20
6536;DHT22;34330;52.08032700;5.40923460;2023-07-16T03:28:54;20.80;64.20
6536;DHT22;34330;52.08032700;5.40923460;2023-07-16T03:31:23;20.70;64.10
6536;DHT22;34330;52.08032700;5.40923460;2023-07-16T03:33:51;20.70;64.20
6536;DHT22;34330;52.08032700;5.40923460;2023-07-16T03:36:19;20.70;64.30
6536;DHT22;34330;52.08032700;5.40923460;2023-07-16T03:38:48;20.70;64.20
6536;DHT22;34330;52.08032700;5.40923460;2023-07-16T03:41:16;20.70;64.40
6536;DHT22;34330;52.08032700;5.40923460;2023-07-16T03:43:44;20.70;64.60
6536;DHT22;34330;52.08032700;5.40923460;2023-07-16T03:46:12;20.60;64.60
6536;DHT22;34330;52.08032700;5.40923460;2023-07-16T03:48:42;20.60;64.70
6536;DHT22;34330;52.08032700;5.40923460;2023-07-16T03:51:10;20.60;65.00
6536;DHT22;34330;52.08032700;5.40923460;2023-07-16T03:53:38;20.60;65.00
6536;DHT22;34330;52.08032700;5.40923460;2023-07-16T03:56:06;20.50;64.90
6536;DHT22;34330;52.08032700;5.40923460;2023-07-16T03:58:34;20.50;65.10
6536;DHT22;34330;52.08032700;5.40923460;2023-07-16T04:01:02;20.50;65.20
6536;DHT22;34330;52.08032700;5.40923460;2023-07-16T04:03:30;20.50;65.30
6536;DHT22;34330;52.08032700;5.40923460;2023-07-16T04:06:05;20.50;65.20
6536;DHT22;34330;52.08032700;5.40923460;2023-07-16T04:08:33;20.50;65.50
6536;DHT22;34330;52.08032700;5.40923460;2023-07-16T04:11:01;20.40;65.00
6536;DHT22;34330;52.08032700;5.40923460;2023-07-16T04:13:29;20.40;65.40
6536;DHT22;34330;52.08032700;5.40923460;2023-07-16T04:15:57;20.40;65.30
6536;DHT22;34330;52.08032700;5.40923460;2023-07-16T04:18:26;20.40;65.40
6536;DHT22;34330;52.08032700;5.40923460;2023-07-16T04:20:54;20.40;65.40
6536;DHT22;34330;52.08032700;5.40923460;2023-07-16T04:23:23;20.40;65.40
6536;DHT22;34330;52.08032700;5.40923460;2023-07-16T04:25:52;20.40;65.50
6536;DHT22;34330;52.08032700;5.40923460;2023-07-16T04:28:21;20.40;65.50
6536;DHT22;34330;52.08032700;5.40923460;2023-07-16T04:30:49;20.30;65.40
6536;DHT22;34330;52.08032700;5.40923460;2023-07-16T04:33:17;20.30;65.60
6536;DHT22;34330;52.08032700;5.40923460;2023-07-16T04:35:46;20.40;65.60
6536;DHT22;34330;52.08032700;5.40923460;2023-07-16T04:38:14;20.40;65.50
6536;DHT22;34330;52.08032700;5.40923460;2023-07-16T04:40:44;20.40;65.60
6536;DHT22;34330;52.08032700;5.40923460;2023-07-16T04:43:12;20.40;65.60
6536;DHT22;34330;52.08032700;5.40923460;2023-07-16T04:45:40;20.40;65.50
6536;DHT22;34330;52.08032700;5.40923460;2023-07-16T04:48:08;20.40;65.50
6536;DHT22;34330;52.08032700;5.40923460;2023-07-16T04:50:36;20.30;65.20
6536;DHT22;34330;52.08032700;5.40923460;2023-07-16T04:53:04;20.40;65.40
6536;DHT22;34330;52.08032700;5.40923460;2023-07-16T04:55:35;20.40;65.30
6536;DHT22;34330;52.08032700;5.40923460;2023-07-16T04:58:05;20.30;66.30
6536;DHT22;34330;52.08032700;5.40923460;2023-07-16T05:00:33;20.40;66.40
6536;DHT22;34330;52.08032700;5.40923460;2023-07-16T05:03:01;20.40;65.50
6536;DHT22;34330;52.08032700;5.40923460;2023-07-16T05:05:30;20.30;65.90
6536;DHT22;34330;52.08032700;5.40923460;2023-07-16T05:07:58;20.30;65.90
6536;DHT22;34330;52.08032700;5.40923460;2023-07-16T05:10:27;20.30;65.70
6536;DHT22;34330;52.08032700;5.40923460;2023-07-16T05:12:55;20.40;66.30
6536;DHT22;34330;52.08032700;5.40923460;2023-07-16T05:15:26;20.40;65.30
6536;DHT22;34330;52.08032700;5.40923460;2023-07-16T05:17:54;20.40;65.20
6536;DHT22;34330;52.08032700;5.40923460;2023-07-16T05:20:24;20.50;65.40
6536;DHT22;34330;52.08032700;5.40923460;2023-07-16T05:22:52;20.50;65.30
6536;DHT22;34330;52.08032700;5.40923460;2023-07-16T05:25:20;20.50;65.30
6536;DHT22;34330;52.08032700;5.40923460;2023-07-16T05:27:48;20.70;65.30
6536;DHT22;34330;52.08032700;5.40923460;2023-07-16T05:30:16;20.50;65.00
6536;DHT22;34330;52.08032700;5.40923460;2023-07-16T05:32:46;20.50;65.00
6536;DHT22;34330;52.08032700;5.40923460;2023-07-16T05:35:15;20.60;65.10
6536;DHT22;34330;52.08032700;5.40923460;2023-07-16T05:37:43;20.60;65.10
6536;DHT22;34330;52.08032700;5.40923460;2023-07-16T05:40:11;20.60;64.90
6536;DHT22;34330;52.08032700;5.40923460;2023-07-16T05:42:39;20.70;65.00
6536;DHT22;34330;52.08032700;5.40923460;2023-07-16T05:45:08;20.70;64.80
6536;DHT22;34330;52.08032700;5.40923460;2023-07-16T05:47:36;20.70;64.70
6536;DHT22;34330;52.08032700;5.40923460;2023-07-16T05:50:07;20.80;64.80
6536;DHT22;34330;52.08032700;5.40923460;2023-07-16T05:52:35;20.80;64.60
6536;DHT22;34330;52.08032700;5.40923460;2023-07-16T05:55:04;20.80;64.80
6536;DHT22;34330;52.08032700;5.40923460;2023-07-16T05:57:32;20.80;65.00
6536;DHT22;34330;52.08032700;5.40923460;2023-07-16T06:00:00;20.90;64.80
6536;DHT22;34330;52.08032700;5.40923460;2023-07-16T06:02:29;21.00;64.60
6536;DHT22;34330;52.08032700;5.40923460;2023-07-16T06:04:57;21.00;64.60
6536;DHT22;34330;52.08032700;5.40923460;2023-07-16T06:07:27;21.10;64.60
6536;DHT22;34330;52.08032700;5.40923460;2023-07-16T06:09:55;21.10;64.40
6536;DHT22;34330;52.08032700;5.40923460;2023-07-16T06:12:23;21.20;64.20
6536;DHT22;34330;52.08032700;5.40923460;2023-07-16T06:14:51;21.20;64.30
6536;DHT22;34330;52.08032700;5.40923460;2023-07-16T06:17:19;21.30;64.50
6536;DHT22;34330;52.08032700;5.40923460;2023-07-16T06:19:48;21.40;64.20
6536;DHT22;34330;52.08032700;5.40923460;2023-07-16T06:22:17;21.40;63.70
6536;DHT22;34330;52.08032700;5.40923460;2023-07-16T06:24:47;21.50;63.90
6536;DHT22;34330;52.08032700;5.40923460;2023-07-16T06:27:15;21.50;63.50
6536;DHT22;34330;52.08032700;5.40923460;2023-07-16T06:29:43;21.50;63.80
6536;DHT22;34330;52.08032700;5.40923460;2023-07-16T06:32:11;21.60;63.90
6536;DHT22;34330;52.08032700;5.40923460;2023-07-16T06:34:39;21.70;63.50
6536;DHT22;34330;52.08032700;5.40923460;2023-07-16T06:37:07;21.70;63.30
6536;DHT22;34330;52.08032700;5.40923460;2023-07-16T06:39:36;21.80;63.20
6536;DHT22;34330;52.08032700;5.40923460;2023-07-16T06:42:06;21.80;63.20
6536;DHT22;34330;52.08032700;5.40923460;2023-07-16T06:44:34;21.80;63.10
6536;DHT22;34330;52.08032700;5.40923460;2023-07-16T06:47:02;21.90;62.90
6536;DHT22;34330;52.08032700;5.40923460;2023-07-16T06:49:30;21.90;62.90
6536;DHT22;34330;52.08032700;5.40923460;2023-07-16T06:52:00;22.00;63.00
6536;DHT22;34330;52.08032700;5.40923460;2023-07-16T06:54:28;22.00;63.10
6536;DHT22;34330;52.08032700;5.40923460;2023-07-16T06:56:56;22.10;63.10
6536;DHT22;34330;52.08032700;5.40923460;2023-07-16T06:59:25;22.10;63.20
6536;DHT22;34330;52.08032700;5.40923460;2023-07-16T07:01:53;22.20;63.10
6536;DHT22;34330;52.08032700;5.40923460;2023-07-16T07:04:21;22.20;62.90
6536;DHT22;34330;52.08032700;5.40923460;2023-07-16T07:06:50;22.30;62.70
6536;DHT22;34330;52.08032700;5.40923460;2023-07-16T07:09:18;22.30;62.70
6536;DHT22;34330;52.08032700;5.40923460;2023-07-16T07:11:46;22.40;62.80
6536;DHT22;34330;52.08032700;5.40923460;2023-07-16T07:14:15;22.40;62.60
6536;DHT22;34330;52.08032700;5.40923460;2023-07-16T07:16:44;22.40;62.40
6536;DHT22;34330;52.08032700;5.40923460;2023-07-16T07:19:13;22.50;62.10
6536;DHT22;34330;52.08032700;5.40923460;2023-07-16T07:21:41;22.50;62.10
6536;DHT22;34330;52.08032700;5.40923460;2023-07-16T07:24:09;22.50;62.00
6536;DHT22;34330;52.08032700;5.40923460;2023-07-16T07:26:37;22.60;62.10
6536;DHT22;34330;52.08032700;5.40923460;2023-07-16T07:29:05;22.60;62.00
6536;DHT22;34330;52.08032700;5.40923460;2023-07-16T07:31:33;22.60;62.70
6536;DHT22;34330;52.08032700;5.40923460;2023-07-16T07:34:02;22.80;62.70
6536;DHT22;34330;52.08032700;5.40923460;2023-07-16T07:36:30;22.60;62.10
6536;DHT22;34330;52.08032700;5.40923460;2023-07-16T07:38:58;22.70;62.30
6536;DHT22;34330;52.08032700;5.40923460;2023-07-16T07:41:26;22.70;62.10
6536;DHT22;34330;52.08032700;5.40923460;2023-07-16T07:43:54;22.70;61.90
6536;DHT22;34330;52.08032700;5.40923460;2023-07-16T07:46:22;22.70;62.00
6536;DHT22;34330;52.08032700;5.40923460;2023-07-16T07:48:50;22.70;62.20
6536;DHT22;34330;52.08032700;5.40923460;2023-07-16T07:51:20;22.70;61.80
6536;DHT22;34330;52.08032700;5.40923460;2023-07-16T07:53:49;22.70;62.00
6536;DHT22;34330;52.08032700;5.40923460;2023-07-16T07:56:17;22.80;62.10
6536;DHT22;34330;52.08032700;5.40923460;2023-07-16T07:58:45;22.80;62.10
6536;DHT22;34330;52.08032700;5.40923460;2023-07-16T08:01:15;22.80;62.10
6536;DHT22;34330;52.08032700;5.40923460;2023-07-16T08:03:44;22.90;61.80
6536;DHT22;34330;52.08032700;5.40923460;2023-07-16T08:06:12;22.90;61.50
6536;DHT22;34330;52.08032700;5.40923460;2023-07-16T08:08:42;22.90;61.70
6536;DHT22;34330;52.08032700;5.40923460;2023-07-16T08:11:10;22.90;61.90
6536;DHT22;34330;52.08032700;5.40923460;2023-07-16T08:13:38;22.90;62.60
6536;DHT22;34330;52.08032700;5.40923460;2023-07-16T08:16:06;22.90;62.30
6536;DHT22;34330;52.08032700;5.40923460;2023-07-16T08:18:34;22.90;61.70
6536;DHT22;34330;52.08032700;5.40923460;2023-07-16T08:21:02;23.00;62.00
6536;DHT22;34330;52.08032700;5.40923460;2023-07-16T08:23:30;23.00;61.70
6536;DHT22;34330;52.08032700;5.40923460;2023-07-16T08:25:59;23.00;61.60
6536;DHT22;34330;52.08032700;5.40923460;2023-07-16T08:28:27;23.00;61.60
6536;DHT22;34330;52.08032700;5.40923460;2023-07-16T08:30:56;23.00;61.70
6536;DHT22;34330;52.08032700;5.40923460;2023-07-16T08:33:24;23.00;61.60
6536;DHT22;34330;52.08032700;5.40923460;2023-07-16T08:35:52;23.00;61.50
6536;DHT22;34330;52.08032700;5.40923460;2023-07-16T08:38:20;23.00;61.60
6536;DHT22;34330;52.08032700;5.40923460;2023-07-16T08:40:48;23.00;61.60
6536;DHT22;34330;52.08032700;5.40923460;2023-07-16T08:43:19;23.00;61.90
6536;DHT22;34330;52.08032700;5.40923460;2023-07-16T08:45:49;23.00;62.20
6536;DHT22;34330;52.08032700;5.40923460;2023-07-16T08:48:17;22.90;62.20
6536;DHT22;34330;52.08032700;5.40923460;2023-07-16T08:50:47;22.90;62.40
6536;DHT22;34330;52.08032700;5.40923460;2023-07-16T08:53:16;23.00;62.20
6536;DHT22;34330;52.08032700;5.40923460;2023-07-16T08:55:45;23.00;62.20
6536;DHT22;34330;52.08032700;5.40923460;2023-07-16T08:58:22;23.00;62.00
6536;DHT22;34330;52.08032700;5.40923460;2023-07-16T09:00:51;23.00;62.80
6536;DHT22;34330;52.08032700;5.40923460;2023-07-16T09:03:19;23.00;61.90
6536;DHT22;34330;52.08032700;5.40923460;2023-07-16T09:05:48;23.10;62.20
6536;DHT22;34330;52.08032700;5.40923460;2023-07-16T09:08:16;23.10;62.00
6536;DHT22;34330;52.08032700;5.40923460;2023-07-16T09:10:53;23.10;62.40
6536;DHT22;34330;52.08032700;5.40923460;2023-07-16T09:13:22;23.10;62.40
6536;DHT22;34330;52.08032700;5.40923460;2023-07-16T09:15:53;23.20;62.70
6536;DHT22;34330;52.08032700;5.40923460;2023-07-16T09:18:22;23.30;62.80
6536;DHT22;34330;52.08032700;5.40923460;2023-07-16T09:20:54;23.30;62.40
6536;DHT22;34330;52.08032700;5.40923460;2023-07-16T09:23:24;23.40;61.70
6536;DHT22;34330;52.08032700;5.40923460;2023-07-16T09:25:54;23.50;61.60
6536;DHT22;34330;52.08032700;5.40923460;2023-07-16T09:28:24;23.50;61.00
6536;DHT22;34330;52.08032700;5.40923460;2023-07-16T09:30:52;23.50;61.20
6536;DHT22;34330;52.08032700;5.40923460;2023-07-16T09:33:21;23.60;61.20
6536;DHT22;34330;52.08032700;5.40923460;2023-07-16T09:35:53;23.60;61.50
6536;DHT22;34330;52.08032700;5.40923460;2023-07-16T09:38:21;23.50;61.50
6536;DHT22;34330;52.08032700;5.40923460;2023-07-16T09:40:52;23.50;62.00
6536;DHT22;34330;52.08032700;5.40923460;2023-07-16T09:43:20;23.60;62.00
6536;DHT22;34330;52.08032700;5.40923460;2023-07-16T09:45:50;23.70;62.20
6536;DHT22;34330;52.08032700;5.40923460;2023-07-16T09:48:19;23.80;61.80
6536;DHT22;34330;52.08032700;5.40923460;2023-07-16T09:50:50;23.90;61.00
6536;DHT22;34330;52.08032700;5.40923460;2023-07-16T09:53:20;24.00;60.80
6536;DHT22;34330;52.08032700;5.40923460;2023-07-16T09:55:52;24.00;60.50
6536;DHT22;34330;52.08032700;5.40923460;2023-07-16T09:58:21;24.10;60.90
6536;DHT22;34330;52.08032700;5.40923460;2023-07-16T10:00:51;24.10;60.80
6536;DHT22;34330;52.08032700;5.40923460;2023-07-16T10:03:19;24.20;60.80
6536;DHT22;34330;52.08032700;5.40923460;2023-07-16T10:05:48;24.20;60.50
6536;DHT22;34330;52.08032700;5.40923460;2023-07-16T10:08:19;24.20;59.80
6536;DHT22;34330;52.08032700;5.40923460;2023-07-16T10:10:52;24.30;60.20
6536;DHT22;34330;52.08032700;5.40923460;2023-07-16T10:13:24;24.30;60.00
6536;DHT22;34330;52.08032700;5.40923460;2023-07-16T10:15:54;24.30;60.40
6536;DHT22;34330;52.08032700;5.40923460;2023-07-16T10:18:27;24.30;60.40
6536;DHT22;34330;52.08032700;5.40923460;2023-07-16T10:21:04;24.30;60.10
6536;DHT22;34330;52.08032700;5.40923460;2023-07-16T10:23:38;24.40;61.10
6536;DHT22;34330;52.08032700;5.40923460;2023-07-16T10:26:08;24.50;60.30
6536;DHT22;34330;52.08032700;5.40923460;2023-07-16T10:28:37;24.60;61.40
6536;DHT22;34330;52.08032700;5.40923460;2023-07-16T10:31:17;24.70;60.30
6536;DHT22;34330;52.08032700;5.40923460;2023-07-16T10:33:57;24.80;59.70
6536;DHT22;34330;52.08032700;5.40923460;2023-07-16T10:36:25;24.80;58.70
6536;DHT22;34330;52.08032700;5.40923460;2023-07-16T10:38:54;24.90;59.00
6536;DHT22;34330;52.08032700;5.40923460;2023-07-16T10:41:22;24.90;58.60
6536;DHT22;34330;52.08032700;5.40923460;2023-07-16T10:43:50;24.90;58.70
6536;DHT22;34330;52.08032700;5.40923460;2023-07-16T10:46:22;24.90;58.70
6536;DHT22;34330;52.08032700;5.40923460;2023-07-16T10:48:50;24.80;58.60
6536;DHT22;34330;52.08032700;5.40923460;2023-07-16T10:51:25;24.80;58.90
6536;DHT22;34330;52.08032700;5.40923460;2023-07-16T10:53:55;24.80;58.70
6536;DHT22;34330;52.08032700;5.40923460;2023-07-16T10:56:24;24.80;58.70
6536;DHT22;34330;52.08032700;5.40923460;2023-07-16T10:58:53;24.80;58.50
6536;DHT22;34330;52.08032700;5.40923460;2023-07-16T11:01:22;24.70;58.50
6536;DHT22;34330;52.08032700;5.40923460;2023-07-16T11:03:59;24.80;58.60
6536;DHT22;34330;52.08032700;5.40923460;2023-07-16T11:06:33;24.70;59.00
6536;DHT22;34330;52.08032700;5.40923460;2023-07-16T11:09:06;25.80;59.50
6536;DHT22;34330;52.08032700;5.40923460;2023-07-16T11:11:34;24.70;59.20
6536;DHT22;34330;52.08032700;5.40923460;2023-07-16T11:14:04;23.20;58.60
6536;DHT22;34330;52.08032700;5.40923460;2023-07-16T11:16:35;24.90;60.00
6536;DHT22;34330;52.08032700;5.40923460;2023-07-16T11:19:04;24.90;60.00
6536;DHT22;34330;52.08032700;5.40923460;2023-07-16T11:21:33;25.00;59.80
6536;DHT22;34330;52.08032700;5.40923460;2023-07-16T11:24:09;25.10;59.60
6536;DHT22;34330;52.08032700;5.40923460;2023-07-16T11:26:38;25.20;59.00
6536;DHT22;34330;52.08032700;5.40923460;2023-07-16T11:29:15;25.30;59.10
6536;DHT22;34330;52.08032700;5.40923460;2023-07-16T11:31:44;25.30;58.80
6536;DHT22;34330;52.08032700;5.40923460;2023-07-16T11:34:16;25.30;58.80
6536;DHT22;34330;52.08032700;5.40923460;2023-07-16T11:36:45;25.40;58.60
6536;DHT22;34330;52.08032700;5.40923460;2023-07-16T11:39:17;25.30;58.50
6536;DHT22;34330;52.08032700;5.40923460;2023-07-16T11:41:54;25.30;58.40
6536;DHT22;34330;52.08032700;5.40923460;2023-07-16T11:44:25;25.20;58.10
6536;DHT22;34330;52.08032700;5.40923460;2023-07-16T11:46:58;25.20;58.60
6536;DHT22;34330;52.08032700;5.40923460;2023-07-16T11:49:26;25.20;58.40
6536;DHT22;34330;52.08032700;5.40923460;2023-07-16T11:51:55;25.20;57.90
6536;DHT22;34330;52.08032700;5.40923460;2023-07-16T11:54:24;25.20;57.30
6536;DHT22;34330;52.08032700;5.40923460;2023-07-16T11:56:52;25.20;57.20
6536;DHT22;34330;52.08032700;5.40923460;2023-07-16T11:59:20;25.20;58.00
6536;DHT22;34330;52.08032700;5.40923460;2023-07-16T12:01:48;25.20;57.80
6536;DHT22;34330;52.08032700;5.40923460;2023-07-16T12:04:18;25.30;57.30
6536;DHT22;34330;52.08032700;5.40923460;2023-07-16T12:06:46;25.30;57.30
6536;DHT22;34330;52.08032700;5.40923460;2023-07-16T12:09:14;25.30;57.50
6536;DHT22;34330;52.08032700;5.40923460;2023-07-16T12:11:42;25.40;57.80
6536;DHT22;34330;52.08032700;5.40923460;2023-07-16T12:14:10;25.40;57.90
6536;DHT22;34330;52.08032700;5.40923460;2023-07-16T12:16:39;25.40;57.60
6536;DHT22;34330;52.08032700;5.40923460;2023-07-16T12:19:09;25.40;57.00
6536;DHT22;34330;52.08032700;5.40923460;2023-07-16T12:21:38;25.50;56.30
6536;DHT22;34330;52.08032700;5.40923460;2023-07-16T12:24:06;25.50;56.60
6536;DHT22;34330;52.08032700;5.40923460;2023-07-16T12:26:34;25.60;56.80
6536;DHT22;34330;52.08032700;5.40923460;2023-07-16T12:29:03;25.70;57.00
6536;DHT22;34330;52.08032700;5.40923460;2023-07-16T12:31:31;25.70;57.30
6536;DHT22;34330;52.08032700;5.40923460;2023-07-16T12:34:00;25.80;57.50
6536;DHT22;34330;52.08032700;5.40923460;2023-07-16T12:36:28;25.80;57.40
6536;DHT22;34330;52.08032700;5.40923460;2023-07-16T12:38:58;25.90;57.20
6536;DHT22;34330;52.08032700;5.40923460;2023-07-16T12:41:26;26.00;57.60
6536;DHT22;34330;52.08032700;5.40923460;2023-07-16T12:43:54;26.20;57.00
6536;DHT22;34330;52.08032700;5.40923460;2023-07-16T12:46:22;26.00;56.30
6536;DHT22;34330;52.08032700;5.40923460;2023-07-16T12:48:50;26.10;56.00
6536;DHT22;34330;52.08032700;5.40923460;2023-07-16T12:51:18;26.20;54.90
6536;DHT22;34330;52.08032700;5.40923460;2023-07-16T12:53:46;26.20;54.50
6536;DHT22;34330;52.08032700;5.40923460;2023-07-16T12:56:16;26.20;54.70
6536;DHT22;34330;52.08032700;5.40923460;2023-07-16T12:58:44;26.20;54.60
6536;DHT22;34330;52.08032700;5.40923460;2023-07-16T13:01:14;26.30;54.90
6536;DHT22;34330;52.08032700;5.40923460;2023-07-16T13:03:42;26.40;54.60
6536;DHT22;34330;52.08032700;5.40923460;2023-07-16T13:06:11;26.40;54.70
6536;DHT22;34330;52.08032700;5.40923460;2023-07-16T13:08:39;26.40;54.60
6536;DHT22;34330;52.08032700;5.40923460;2023-07-16T13:11:07;26.40;54.50
6536;DHT22;34330;52.08032700;5.40923460;2023-07-16T13:13:36;25.70;53.60
6536;DHT22;34330;52.08032700;5.40923460;2023-07-16T13:16:04;26.40;54.20
6536;DHT22;34330;52.08032700;5.40923460;2023-07-16T13:18:33;26.50;54.00
6536;DHT22;34330;52.08032700;5.40923460;2023-07-16T13:21:01;26.60;53.10
6536;DHT22;34330;52.08032700;5.40923460;2023-07-16T13:23:30;26.70;53.10
6536;DHT22;34330;52.08032700;5.40923460;2023-07-16T13:25:58;26.70;52.70
6536;DHT22;34330;52.08032700;5.40923460;2023-07-16T13:28:26;26.70;52.70
6536;DHT22;34330;52.08032700;5.40923460;2023-07-16T13:30:55;26.80;52.90
6536;DHT22;34330;52.08032700;5.40923460;2023-07-16T13:33:24;26.90;52.90
6536;DHT22;34330;52.08032700;5.40923460;2023-07-16T13:35:52;26.90;53.00
6536;DHT22;34330;52.08032700;5.40923460;2023-07-16T13:38:20;26.90;52.70
6536;DHT22;34330;52.08032700;5.40923460;2023-07-16T13:40:48;26.90;52.50
6536;DHT22;34330;52.08032700;5.40923460;2023-07-16T13:43:16;27.00;52.30
6536;DHT22;34330;52.08032700;5.40923460;2023-07-16T13:45:45;27.00;52.30